Beaver Island, Canada
Current Conditions -  °F | °C
As of 5:00 AM on Saturday 25 Oct 2014 (Local Time) from CYHZ Reporting Station
Overcast Overcast  
Wind Chill: 50°   Ceiling: 400
Heat Index: 50°   Visibility: 15mi
Dew Point: 48°   Wind: 15mph
Humidity: 94%   Direction: 320°NW
Pressure: 29.41"   Gusts: NA
Location:  44.75°N, 62.8°W
Report Text: CYHZ 250800Z 32013KT 15SM BKN004 OVC015 10/09 A2941 RMK SF7SC1 SLP962 DENSITY ALT 500FT
Loading
Personal Weather Stations






























Interactive Weather Map
Tropical Storm Tracking
New forecast layout! Learn more

10-Day Weather Forecast

Advertisements
Track Severe Weather on mobile